sensor_id;sensor_type;location;lat;lon;timestamp;P1;durP1;ratioP1;P2;durP2;ratioP2
16892;SDS011;8563;52.242;9.098;2023-03-18T00:00:28;2.73;;;1.77;;
16892;SDS011;8563;52.242;9.098;2023-03-18T00:03:03;3.83;;;1.77;;
16892;SDS011;8563;52.242;9.098;2023-03-18T00:05:36;4.30;;;2.00;;
16892;SDS011;8563;52.242;9.098;2023-03-18T00:08:08;3.87;;;1.93;;
16892;SDS011;8563;52.242;9.098;2023-03-18T00:10:41;3.80;;;1.60;;
16892;SDS011;8563;52.242;9.098;2023-03-18T00:13:13;3.27;;;1.97;;
16892;SDS011;8563;52.242;9.098;2023-03-18T00:15:46;2.37;;;1.83;;
16892;SDS011;8563;52.242;9.098;2023-03-18T00:18:22;3.37;;;1.73;;
16892;SDS011;8563;52.242;9.098;2023-03-18T00:20:55;4.30;;;2.10;;
16892;SDS011;8563;52.242;9.098;2023-03-18T00:23:28;2.50;;;1.70;;
16892;SDS011;8563;52.242;9.098;2023-03-18T00:26:01;3.67;;;1.87;;
16892;SDS011;8563;52.242;9.098;2023-03-18T00:28:34;4.33;;;1.90;;
16892;SDS011;8563;52.242;9.098;2023-03-18T00:31:08;2.40;;;1.57;;
16892;SDS011;8563;52.242;9.098;2023-03-18T00:33:46;3.63;;;2.03;;
16892;SDS011;8563;52.242;9.098;2023-03-18T00:36:19;3.20;;;1.70;;
16892;SDS011;8563;52.242;9.098;2023-03-18T00:38:54;4.90;;;2.20;;
16892;SDS011;8563;52.242;9.098;2023-03-18T00:41:28;6.60;;;2.20;;
16892;SDS011;8563;52.242;9.098;2023-03-18T00:44:02;4.33;;;1.97;;
16892;SDS011;8563;52.242;9.098;2023-03-18T00:46:35;4.47;;;2.37;;
16892;SDS011;8563;52.242;9.098;2023-03-18T00:49:09;4.37;;;2.27;;
16892;SDS011;8563;52.242;9.098;2023-03-18T00:51:41;4.87;;;2.63;;
16892;SDS011;8563;52.242;9.098;2023-03-18T00:54:14;4.93;;;2.60;;
16892;SDS011;8563;52.242;9.098;2023-03-18T00:56:48;7.43;;;2.90;;
16892;SDS011;8563;52.242;9.098;2023-03-18T00:59:21;5.40;;;2.93;;
16892;SDS011;8563;52.242;9.098;2023-03-18T01:01:53;4.40;;;2.87;;
16892;SDS011;8563;52.242;9.098;2023-03-18T01:04:27;4.83;;;3.10;;
16892;SDS011;8563;52.242;9.098;2023-03-18T01:06:59;5.13;;;2.50;;
16892;SDS011;8563;52.242;9.098;2023-03-18T01:09:32;5.43;;;3.17;;
16892;SDS011;8563;52.242;9.098;2023-03-18T01:12:06;6.93;;;3.20;;
16892;SDS011;8563;52.242;9.098;2023-03-18T01:14:39;4.77;;;3.33;;
16892;SDS011;8563;52.242;9.098;2023-03-18T01:17:12;5.80;;;3.60;;
16892;SDS011;8563;52.242;9.098;2023-03-18T01:19:46;5.70;;;3.30;;
16892;SDS011;8563;52.242;9.098;2023-03-18T01:22:19;4.07;;;2.83;;
16892;SDS011;8563;52.242;9.098;2023-03-18T01:24:53;6.00;;;3.30;;
16892;SDS011;8563;52.242;9.098;2023-03-18T01:27:32;6.07;;;3.50;;
16892;SDS011;8563;52.242;9.098;2023-03-18T01:30:06;6.47;;;3.43;;
16892;SDS011;8563;52.242;9.098;2023-03-18T01:32:40;4.97;;;2.70;;
16892;SDS011;8563;52.242;9.098;2023-03-18T01:35:14;4.77;;;3.00;;
16892;SDS011;8563;52.242;9.098;2023-03-18T01:37:50;6.40;;;3.50;;
16892;SDS011;8563;52.242;9.098;2023-03-18T01:40:22;6.87;;;3.53;;
16892;SDS011;8563;52.242;9.098;2023-03-18T01:42:57;6.13;;;3.57;;
16892;SDS011;8563;52.242;9.098;2023-03-18T01:45:43;4.73;;;3.40;;
16892;SDS011;8563;52.242;9.098;2023-03-18T01:48:20;5.10;;;3.40;;
16892;SDS011;8563;52.242;9.098;2023-03-18T01:50:57;6.23;;;3.47;;
16892;SDS011;8563;52.242;9.098;2023-03-18T01:53:35;6.93;;;3.80;;
16892;SDS011;8563;52.242;9.098;2023-03-18T01:56:10;4.53;;;3.30;;
16892;SDS011;8563;52.242;9.098;2023-03-18T01:58:44;4.63;;;2.90;;
16892;SDS011;8563;52.242;9.098;2023-03-18T02:01:21;7.37;;;4.00;;
16892;SDS011;8563;52.242;9.098;2023-03-18T02:03:59;9.30;;;4.40;;
16892;SDS011;8563;52.242;9.098;2023-03-18T02:06:34;6.27;;;3.60;;
16892;SDS011;8563;52.242;9.098;2023-03-18T02:09:07;7.57;;;3.83;;
16892;SDS011;8563;52.242;9.098;2023-03-18T02:11:41;8.30;;;3.97;;
16892;SDS011;8563;52.242;9.098;2023-03-18T02:14:19;7.10;;;3.90;;
16892;SDS011;8563;52.242;9.098;2023-03-18T02:16:54;5.50;;;3.47;;
16892;SDS011;8563;52.242;9.098;2023-03-18T02:19:38;4.43;;;3.63;;
16892;SDS011;8563;52.242;9.098;2023-03-18T02:22:26;7.07;;;4.03;;
16892;SDS011;8563;52.242;9.098;2023-03-18T02:25:14;6.50;;;3.90;;
16892;SDS011;8563;52.242;9.098;2023-03-18T02:27:56;7.93;;;4.40;;
16892;SDS011;8563;52.242;9.098;2023-03-18T02:30:36;7.23;;;4.27;;
16892;SDS011;8563;52.242;9.098;2023-03-18T02:33:12;8.23;;;4.47;;
16892;SDS011;8563;52.242;9.098;2023-03-18T02:35:48;6.67;;;4.53;;
16892;SDS011;8563;52.242;9.098;2023-03-18T02:38:23;6.73;;;4.03;;
16892;SDS011;8563;52.242;9.098;2023-03-18T02:40:56;5.37;;;3.97;;
16892;SDS011;8563;52.242;9.098;2023-03-18T02:43:38;7.80;;;4.33;;
16892;SDS011;8563;52.242;9.098;2023-03-18T02:46:15;6.90;;;4.43;;
16892;SDS011;8563;52.242;9.098;2023-03-18T02:48:57;7.67;;;4.37;;
16892;SDS011;8563;52.242;9.098;2023-03-18T02:51:31;10.00;;;4.80;;
16892;SDS011;8563;52.242;9.098;2023-03-18T02:54:05;7.73;;;4.30;;
16892;SDS011;8563;52.242;9.098;2023-03-18T02:56:40;6.43;;;3.93;;
16892;SDS011;8563;52.242;9.098;2023-03-18T02:59:16;8.37;;;4.13;;
16892;SDS011;8563;52.242;9.098;2023-03-18T03:01:49;7.00;;;4.17;;
16892;SDS011;8563;52.242;9.098;2023-03-18T03:04:24;8.17;;;4.37;;
16892;SDS011;8563;52.242;9.098;2023-03-18T03:06:57;5.17;;;3.97;;
16892;SDS011;8563;52.242;9.098;2023-03-18T03:09:48;9.47;;;4.57;;
16892;SDS011;8563;52.242;9.098;2023-03-18T03:12:22;7.43;;;4.73;;
16892;SDS011;8563;52.242;9.098;2023-03-18T03:14:59;7.07;;;4.83;;
16892;SDS011;8563;52.242;9.098;2023-03-18T03:17:34;5.53;;;4.40;;
16892;SDS011;8563;52.242;9.098;2023-03-18T03:20:07;4.40;;;3.97;;
16892;SDS011;8563;52.242;9.098;2023-03-18T03:22:40;5.20;;;3.93;;
16892;SDS011;8563;52.242;9.098;2023-03-18T03:25:12;7.17;;;4.20;;
16892;SDS011;8563;52.242;9.098;2023-03-18T03:27:45;9.87;;;4.93;;
16892;SDS011;8563;52.242;9.098;2023-03-18T03:30:19;8.47;;;4.57;;
16892;SDS011;8563;52.242;9.098;2023-03-18T03:32:52;9.80;;;5.23;;
16892;SDS011;8563;52.242;9.098;2023-03-18T03:35:25;6.20;;;4.97;;
16892;SDS011;8563;52.242;9.098;2023-03-18T03:37:57;6.23;;;4.27;;
16892;SDS011;8563;52.242;9.098;2023-03-18T03:40:30;8.17;;;4.47;;
16892;SDS011;8563;52.242;9.098;2023-03-18T03:43:03;8.40;;;3.90;;
16892;SDS011;8563;52.242;9.098;2023-03-18T03:45:36;7.30;;;3.87;;
16892;SDS011;8563;52.242;9.098;2023-03-18T03:48:08;6.70;;;4.53;;
16892;SDS011;8563;52.242;9.098;2023-03-18T03:50:41;6.63;;;4.60;;
16892;SDS011;8563;52.242;9.098;2023-03-18T03:53:14;11.00;;;5.00;;
16892;SDS011;8563;52.242;9.098;2023-03-18T03:55:46;7.73;;;4.57;;
16892;SDS011;8563;52.242;9.098;2023-03-18T03:58:18;7.40;;;4.50;;
16892;SDS011;8563;52.242;9.098;2023-03-18T04:00:53;7.70;;;4.73;;
16892;SDS011;8563;52.242;9.098;2023-03-18T04:03:25;7.47;;;4.53;;
16892;SDS011;8563;52.242;9.098;2023-03-18T04:05:59;9.00;;;4.20;;
16892;SDS011;8563;52.242;9.098;2023-03-18T04:08:34;9.57;;;5.10;;
16892;SDS011;8563;52.242;9.098;2023-03-18T04:11:06;8.00;;;4.53;;
16892;SDS011;8563;52.242;9.098;2023-03-18T04:13:38;5.53;;;4.20;;
16892;SDS011;8563;52.242;9.098;2023-03-18T04:16:12;7.70;;;4.57;;
16892;SDS011;8563;52.242;9.098;2023-03-18T04:18:46;9.67;;;4.93;;
16892;SDS011;8563;52.242;9.098;2023-03-18T04:21:18;6.97;;;4.20;;
16892;SDS011;8563;52.242;9.098;2023-03-18T04:23:56;6.53;;;4.10;;
16892;SDS011;8563;52.242;9.098;2023-03-18T04:26:28;6.00;;;4.47;;
16892;SDS011;8563;52.242;9.098;2023-03-18T04:29:04;6.43;;;4.23;;
16892;SDS011;8563;52.242;9.098;2023-03-18T04:31:39;6.37;;;4.03;;
16892;SDS011;8563;52.242;9.098;2023-03-18T04:34:11;8.73;;;4.60;;
16892;SDS011;8563;52.242;9.098;2023-03-18T04:36:43;6.17;;;4.60;;
16892;SDS011;8563;52.242;9.098;2023-03-18T04:39:15;6.47;;;4.57;;
16892;SDS011;8563;52.242;9.098;2023-03-18T04:41:48;6.07;;;4.40;;
16892;SDS011;8563;52.242;9.098;2023-03-18T04:44:21;8.40;;;4.40;;
16892;SDS011;8563;52.242;9.098;2023-03-18T04:46:57;7.37;;;5.10;;
16892;SDS011;8563;52.242;9.098;2023-03-18T04:49:30;7.87;;;4.37;;
16892;SDS011;8563;52.242;9.098;2023-03-18T04:52:05;8.70;;;4.87;;
16892;SDS011;8563;52.242;9.098;2023-03-18T04:54:40;8.47;;;4.90;;
16892;SDS011;8563;52.242;9.098;2023-03-18T04:57:13;7.93;;;4.77;;
16892;SDS011;8563;52.242;9.098;2023-03-18T04:59:52;6.20;;;4.10;;
16892;SDS011;8563;52.242;9.098;2023-03-18T05:02:26;6.90;;;4.70;;
16892;SDS011;8563;52.242;9.098;2023-03-18T05:04:59;6.53;;;4.30;;
16892;SDS011;8563;52.242;9.098;2023-03-18T05:07:33;6.57;;;4.67;;
16892;SDS011;8563;52.242;9.098;2023-03-18T05:10:12;7.80;;;4.80;;
16892;SDS011;8563;52.242;9.098;2023-03-18T05:12:46;10.77;;;4.70;;
16892;SDS011;8563;52.242;9.098;2023-03-18T05:15:21;8.67;;;4.90;;
16892;SDS011;8563;52.242;9.098;2023-03-18T05:17:59;5.23;;;4.33;;
16892;SDS011;8563;52.242;9.098;2023-03-18T05:20:35;6.07;;;4.77;;
16892;SDS011;8563;52.242;9.098;2023-03-18T05:23:08;9.67;;;5.50;;
16892;SDS011;8563;52.242;9.098;2023-03-18T05:25:49;6.40;;;4.60;;
16892;SDS011;8563;52.242;9.098;2023-03-18T05:28:24;7.83;;;5.23;;
16892;SDS011;8563;52.242;9.098;2023-03-18T05:31:26;8.17;;;4.77;;
16892;SDS011;8563;52.242;9.098;2023-03-18T05:34:00;10.47;;;5.50;;
16892;SDS011;8563;52.242;9.098;2023-03-18T05:36:37;9.57;;;5.17;;
16892;SDS011;8563;52.242;9.098;2023-03-18T05:39:12;8.43;;;5.17;;
16892;SDS011;8563;52.242;9.098;2023-03-18T05:41:44;8.40;;;5.13;;
16892;SDS011;8563;52.242;9.098;2023-03-18T05:44:21;7.27;;;4.90;;
16892;SDS011;8563;52.242;9.098;2023-03-18T05:46:55;7.63;;;5.00;;
16892;SDS011;8563;52.242;9.098;2023-03-18T05:50:01;6.67;;;5.23;;
16892;SDS011;8563;52.242;9.098;2023-03-18T05:52:35;8.17;;;4.17;;
16892;SDS011;8563;52.242;9.098;2023-03-18T05:55:14;9.90;;;5.00;;
16892;SDS011;8563;52.242;9.098;2023-03-18T05:57:48;6.53;;;5.00;;
16892;SDS011;8563;52.242;9.098;2023-03-18T06:00:21;8.63;;;5.50;;
16892;SDS011;8563;52.242;9.098;2023-03-18T06:02:54;9.27;;;5.20;;
16892;SDS011;8563;52.242;9.098;2023-03-18T06:05:28;7.80;;;5.80;;
16892;SDS011;8563;52.242;9.098;2023-03-18T06:08:01;7.97;;;5.40;;
16892;SDS011;8563;52.242;9.098;2023-03-18T06:10:33;7.27;;;4.57;;
16892;SDS011;8563;52.242;9.098;2023-03-18T06:13:05;6.57;;;4.07;;
16892;SDS011;8563;52.242;9.098;2023-03-18T06:15:38;9.60;;;5.60;;
16892;SDS011;8563;52.242;9.098;2023-03-18T06:18:11;7.80;;;4.97;;
16892;SDS011;8563;52.242;9.098;2023-03-18T06:20:45;7.67;;;5.10;;
16892;SDS011;8563;52.242;9.098;2023-03-18T06:23:17;9.50;;;4.90;;
16892;SDS011;8563;52.242;9.098;2023-03-18T06:25:50;6.50;;;4.30;;
16892;SDS011;8563;52.242;9.098;2023-03-18T06:28:26;9.77;;;5.50;;
16892;SDS011;8563;52.242;9.098;2023-03-18T06:31:02;6.70;;;5.00;;
16892;SDS011;8563;52.242;9.098;2023-03-18T06:33:35;9.10;;;5.17;;
16892;SDS011;8563;52.242;9.098;2023-03-18T06:36:11;6.23;;;4.90;;
16892;SDS011;8563;52.242;9.098;2023-03-18T06:38:49;6.20;;;4.83;;
16892;SDS011;8563;52.242;9.098;2023-03-18T06:41:22;6.80;;;4.57;;
16892;SDS011;8563;52.242;9.098;2023-03-18T06:44:22;5.27;;;4.73;;
16892;SDS011;8563;52.242;9.098;2023-03-18T06:46:57;5.80;;;4.30;;
16892;SDS011;8563;52.242;9.098;2023-03-18T06:49:30;7.60;;;4.23;;
16892;SDS011;8563;52.242;9.098;2023-03-18T06:52:12;5.47;;;3.83;;
16892;SDS011;8563;52.242;9.098;2023-03-18T06:54:47;6.20;;;4.30;;
16892;SDS011;8563;52.242;9.098;2023-03-18T06:57:21;6.63;;;4.07;;
16892;SDS011;8563;52.242;9.098;2023-03-18T06:59:54;8.30;;;4.70;;
16892;SDS011;8563;52.242;9.098;2023-03-18T07:02:26;7.60;;;4.60;;
16892;SDS011;8563;52.242;9.098;2023-03-18T07:05:01;5.40;;;4.20;;
16892;SDS011;8563;52.242;9.098;2023-03-18T07:07:38;6.70;;;4.03;;
16892;SDS011;8563;52.242;9.098;2023-03-18T07:10:14;7.47;;;4.37;;
16892;SDS011;8563;52.242;9.098;2023-03-18T07:12:51;6.63;;;3.77;;
16892;SDS011;8563;52.242;9.098;2023-03-18T07:15:24;6.77;;;4.33;;
16892;SDS011;8563;52.242;9.098;2023-03-18T07:17:59;6.03;;;3.50;;
16892;SDS011;8563;52.242;9.098;2023-03-18T07:20:34;7.03;;;3.73;;
16892;SDS011;8563;52.242;9.098;2023-03-18T07:23:08;6.07;;;3.80;;
16892;SDS011;8563;52.242;9.098;2023-03-18T07:25:40;5.13;;;3.30;;
16892;SDS011;8563;52.242;9.098;2023-03-18T07:28:13;4.80;;;3.47;;
16892;SDS011;8563;52.242;9.098;2023-03-18T07:30:46;6.47;;;3.43;;
16892;SDS011;8563;52.242;9.098;2023-03-18T07:33:19;6.53;;;3.30;;
16892;SDS011;8563;52.242;9.098;2023-03-18T07:35:51;6.40;;;3.60;;
16892;SDS011;8563;52.242;9.098;2023-03-18T07:38:26;6.07;;;3.57;;
16892;SDS011;8563;52.242;9.098;2023-03-18T07:41:00;5.30;;;3.50;;
16892;SDS011;8563;52.242;9.098;2023-03-18T07:43:32;5.47;;;3.43;;
16892;SDS011;8563;52.242;9.098;2023-03-18T07:46:04;8.87;;;3.50;;
16892;SDS011;8563;52.242;9.098;2023-03-18T07:48:37;7.87;;;3.87;;
16892;SDS011;8563;52.242;9.098;2023-03-18T07:51:09;5.17;;;3.37;;
16892;SDS011;8563;52.242;9.098;2023-03-18T07:53:42;5.57;;;3.13;;
16892;SDS011;8563;52.242;9.098;2023-03-18T07:56:15;3.83;;;3.00;;
16892;SDS011;8563;52.242;9.098;2023-03-18T07:58:48;7.13;;;3.70;;
16892;SDS011;8563;52.242;9.098;2023-03-18T08:01:21;3.80;;;3.17;;
16892;SDS011;8563;52.242;9.098;2023-03-18T08:03:53;4.83;;;3.00;;
16892;SDS011;8563;52.242;9.098;2023-03-18T08:06:25;5.97;;;3.33;;
16892;SDS011;8563;52.242;9.098;2023-03-18T08:08:59;5.33;;;3.47;;
16892;SDS011;8563;52.242;9.098;2023-03-18T08:11:32;4.10;;;3.03;;
16892;SDS011;8563;52.242;9.098;2023-03-18T08:14:06;6.77;;;3.53;;
16892;SDS011;8563;52.242;9.098;2023-03-18T08:16:38;7.27;;;3.23;;
16892;SDS011;8563;52.242;9.098;2023-03-18T08:19:10;4.73;;;3.27;;
16892;SDS011;8563;52.242;9.098;2023-03-18T08:21:42;5.50;;;3.53;;
16892;SDS011;8563;52.242;9.098;2023-03-18T08:24:16;5.60;;;3.30;;
16892;SDS011;8563;52.242;9.098;2023-03-18T08:26:48;4.07;;;3.03;;
16892;SDS011;8563;52.242;9.098;2023-03-18T08:29:20;5.27;;;3.23;;
16892;SDS011;8563;52.242;9.098;2023-03-18T08:31:52;6.40;;;3.37;;
16892;SDS011;8563;52.242;9.098;2023-03-18T08:34:25;5.90;;;3.13;;
16892;SDS011;8563;52.242;9.098;2023-03-18T08:36:57;7.60;;;3.30;;
16892;SDS011;8563;52.242;9.098;2023-03-18T08:39:31;5.80;;;3.20;;
16892;SDS011;8563;52.242;9.098;2023-03-18T08:42:04;4.00;;;3.10;;
16892;SDS011;8563;52.242;9.098;2023-03-18T08:44:36;4.63;;;3.23;;
16892;SDS011;8563;52.242;9.098;2023-03-18T08:47:09;7.10;;;3.20;;
16892;SDS011;8563;52.242;9.098;2023-03-18T08:49:41;6.00;;;3.57;;
16892;SDS011;8563;52.242;9.098;2023-03-18T08:52:14;4.87;;;3.17;;
16892;SDS011;8563;52.242;9.098;2023-03-18T08:54:48;5.03;;;3.23;;
16892;SDS011;8563;52.242;9.098;2023-03-18T08:57:20;7.93;;;3.20;;
16892;SDS011;8563;52.242;9.098;2023-03-18T08:59:52;3.97;;;3.00;;
16892;SDS011;8563;52.242;9.098;2023-03-18T09:02:25;5.60;;;3.30;;
16892;SDS011;8563;52.242;9.098;2023-03-18T09:04:57;4.33;;;3.40;;
16892;SDS011;8563;52.242;9.098;2023-03-18T09:07:30;5.57;;;3.43;;
16892;SDS011;8563;52.242;9.098;2023-03-18T09:10:04;6.40;;;3.30;;
16892;SDS011;8563;52.242;9.098;2023-03-18T09:12:39;5.00;;;3.30;;
16892;SDS011;8563;52.242;9.098;2023-03-18T09:15:12;4.40;;;3.80;;
16892;SDS011;8563;52.242;9.098;2023-03-18T09:17:45;4.93;;;3.97;;
16892;SDS011;8563;52.242;9.098;2023-03-18T09:20:17;6.13;;;3.27;;
16892;SDS011;8563;52.242;9.098;2023-03-18T09:22:50;4.97;;;3.47;;
16892;SDS011;8563;52.242;9.098;2023-03-18T09:25:24;5.37;;;3.40;;
16892;SDS011;8563;52.242;9.098;2023-03-18T09:27:57;4.57;;;3.53;;
16892;SDS011;8563;52.242;9.098;2023-03-18T09:30:30;6.23;;;3.70;;
16892;SDS011;8563;52.242;9.098;2023-03-18T09:33:03;5.00;;;3.80;;
16892;SDS011;8563;52.242;9.098;2023-03-18T09:35:36;5.47;;;4.10;;
16892;SDS011;8563;52.242;9.098;2023-03-18T09:38:08;4.93;;;3.73;;
16892;SDS011;8563;52.242;9.098;2023-03-18T09:40:49;7.40;;;4.33;;
16892;SDS011;8563;52.242;9.098;2023-03-18T09:43:32;6.43;;;4.63;;
16892;SDS011;8563;52.242;9.098;2023-03-18T09:46:18;8.67;;;5.27;;
16892;SDS011;8563;52.242;9.098;2023-03-18T09:52:12;6.70;;;5.10;;
16892;SDS011;8563;52.242;9.098;2023-03-18T09:54:53;7.83;;;7.03;;
16892;SDS011;8563;52.242;9.098;2023-03-18T09:57:34;9.27;;;7.50;;
16892;SDS011;8563;52.242;9.098;2023-03-18T10:00:15;8.13;;;6.80;;
16892;SDS011;8563;52.242;9.098;2023-03-18T10:02:51;9.95;;;7.65;;
16892;SDS011;8563;52.242;9.098;2023-03-18T10:05:28;9.57;;;7.90;;
16892;SDS011;8563;52.242;9.098;2023-03-18T10:08:03;9.43;;;8.40;;
16892;SDS011;8563;52.242;9.098;2023-03-18T10:10:42;7.93;;;7.10;;
16892;SDS011;8563;52.242;9.098;2023-03-18T10:13:18;9.30;;;7.57;;
16892;SDS011;8563;52.242;9.098;2023-03-18T10:15:56;10.70;;;6.93;;
16892;SDS011;8563;52.242;9.098;2023-03-18T10:18:33;8.13;;;6.23;;
16892;SDS011;8563;52.242;9.098;2023-03-18T10:21:10;7.10;;;6.20;;
16892;SDS011;8563;52.242;9.098;2023-03-18T10:23:54;7.20;;;6.50;;
16892;SDS011;8563;52.242;9.098;2023-03-18T10:26:38;8.13;;;6.50;;
16892;SDS011;8563;52.242;9.098;2023-03-18T10:29:19;8.00;;;6.60;;
16892;SDS011;8563;52.242;9.098;2023-03-18T10:32:02;6.70;;;5.70;;
16892;SDS011;8563;52.242;9.098;2023-03-18T10:34:45;6.20;;;5.17;;
16892;SDS011;8563;52.242;9.098;2023-03-18T10:37:30;5.93;;;4.57;;
16892;SDS011;8563;52.242;9.098;2023-03-18T10:40:13;5.17;;;4.57;;
16892;SDS011;8563;52.242;9.098;2023-03-18T10:42:47;6.40;;;4.57;;
16892;SDS011;8563;52.242;9.098;2023-03-18T10:45:24;5.23;;;4.70;;
16892;SDS011;8563;52.242;9.098;2023-03-18T10:48:01;6.67;;;4.77;;
16892;SDS011;8563;52.242;9.098;2023-03-18T10:50:41;6.20;;;5.10;;
16892;SDS011;8563;52.242;9.098;2023-03-18T10:53:18;8.30;;;5.20;;
16892;SDS011;8563;52.242;9.098;2023-03-18T10:55:56;7.50;;;5.60;;
16892;SDS011;8563;52.242;9.098;2023-03-18T10:58:33;8.80;;;5.73;;
16892;SDS011;8563;52.242;9.098;2023-03-18T11:01:08;8.33;;;5.53;;
16892;SDS011;8563;52.242;9.098;2023-03-18T11:03:44;9.87;;;5.87;;
16892;SDS011;8563;52.242;9.098;2023-03-18T11:06:22;8.03;;;6.23;;
16892;SDS011;8563;52.242;9.098;2023-03-18T11:09:03;7.57;;;5.80;;
16892;SDS011;8563;52.242;9.098;2023-03-18T11:11:38;7.60;;;6.13;;
16892;SDS011;8563;52.242;9.098;2023-03-18T11:14:13;6.73;;;6.00;;
16892;SDS011;8563;52.242;9.098;2023-03-18T11:16:55;8.63;;;5.33;;
16892;SDS011;8563;52.242;9.098;2023-03-18T11:19:29;9.77;;;6.40;;
16892;SDS011;8563;52.242;9.098;2023-03-18T11:22:04;8.07;;;5.80;;
16892;SDS011;8563;52.242;9.098;2023-03-18T11:24:45;7.23;;;5.93;;
16892;SDS011;8563;52.242;9.098;2023-03-18T11:27:37;8.10;;;6.10;;
16892;SDS011;8563;52.242;9.098;2023-03-18T11:30:12;6.63;;;5.93;;
16892;SDS011;8563;52.242;9.098;2023-03-18T11:32:50;5.70;;;5.10;;
16892;SDS011;8563;52.242;9.098;2023-03-18T11:35:39;6.70;;;5.40;;
16892;SDS011;8563;52.242;9.098;2023-03-18T11:38:16;6.07;;;4.73;;
16892;SDS011;8563;52.242;9.098;2023-03-18T11:40:50;5.72;;;5.18;;
16892;SDS011;8563;52.242;9.098;2023-03-18T11:43:22;5.60;;;5.10;;
16892;SDS011;8563;52.242;9.098;2023-03-18T11:45:56;7.70;;;5.93;;
16892;SDS011;8563;52.242;9.098;2023-03-18T11:48:32;7.90;;;4.73;;
16892;SDS011;8563;52.242;9.098;2023-03-18T11:51:17;5.60;;;4.60;;
16892;SDS011;8563;52.242;9.098;2023-03-18T11:54:06;5.72;;;4.43;;
16892;SDS011;8563;52.242;9.098;2023-03-18T11:56:53;5.20;;;4.70;;
16892;SDS011;8563;52.242;9.098;2023-03-18T11:59:29;4.90;;;4.40;;
16892;SDS011;8563;52.242;9.098;2023-03-18T12:02:19;4.57;;;4.17;;
16892;SDS011;8563;52.242;9.098;2023-03-18T12:05:18;5.93;;;4.10;;
16892;SDS011;8563;52.242;9.098;2023-03-18T12:08:02;4.97;;;4.00;;
16892;SDS011;8563;52.242;9.098;2023-03-18T12:10:47;4.17;;;3.80;;
16892;SDS011;8563;52.242;9.098;2023-03-18T12:13:30;6.37;;;3.90;;
16892;SDS011;8563;52.242;9.098;2023-03-18T12:16:12;4.77;;;4.00;;
16892;SDS011;8563;52.242;9.098;2023-03-18T12:19:06;4.63;;;3.93;;
16892;SDS011;8563;52.242;9.098;2023-03-18T12:22:04;5.60;;;4.07;;
16892;SDS011;8563;52.242;9.098;2023-03-18T12:25:06;5.60;;;3.60;;
16892;SDS011;8563;52.242;9.098;2023-03-18T12:28:02;4.93;;;3.47;;
16892;SDS011;8563;52.242;9.098;2023-03-18T12:30:47;4.23;;;3.50;;
16892;SDS011;8563;52.242;9.098;2023-03-18T12:33:29;3.60;;;3.30;;
16892;SDS011;8563;52.242;9.098;2023-03-18T12:36:17;3.70;;;2.90;;
16892;SDS011;8563;52.242;9.098;2023-03-18T12:39:14;3.97;;;3.30;;
16892;SDS011;8563;52.242;9.098;2023-03-18T12:42:01;5.77;;;3.33;;
16892;SDS011;8563;52.242;9.098;2023-03-18T12:44:44;4.32;;;3.13;;
16892;SDS011;8563;52.242;9.098;2023-03-18T12:47:28;4.45;;;3.38;;
16892;SDS011;8563;52.242;9.098;2023-03-18T12:50:05;4.65;;;3.40;;
16892;SDS011;8563;52.242;9.098;2023-03-18T12:52:44;3.15;;;2.85;;
16892;SDS011;8563;52.242;9.098;2023-03-18T12:55:22;7.23;;;3.10;;
16892;SDS011;8563;52.242;9.098;2023-03-18T12:57:57;4.63;;;2.77;;
16892;SDS011;8563;52.242;9.098;2023-03-18T13:00:35;5.53;;;2.60;;
16892;SDS011;8563;52.242;9.098;2023-03-18T13:03:19;5.87;;;2.50;;
16892;SDS011;8563;52.242;9.098;2023-03-18T13:05:57;7.73;;;2.53;;
16892;SDS011;8563;52.242;9.098;2023-03-18T13:08:39;7.25;;;2.92;;
16892;SDS011;8563;52.242;9.098;2023-03-18T13:11:38;2.30;;;1.92;;
16892;SDS011;8563;52.242;9.098;2023-03-18T13:14:33;9.60;;;2.50;;
16892;SDS011;8563;52.242;9.098;2023-03-18T13:17:15;3.37;;;2.10;;
16892;SDS011;8563;52.242;9.098;2023-03-18T13:19:53;5.95;;;2.35;;
16892;SDS011;8563;52.242;9.098;2023-03-18T13:22:35;7.53;;;2.58;;
16892;SDS011;8563;52.242;9.098;2023-03-18T13:25:25;2.58;;;1.88;;
16892;SDS011;8563;52.242;9.098;2023-03-18T13:28:15;2.60;;;1.83;;
16892;SDS011;8563;52.242;9.098;2023-03-18T13:31:02;3.42;;;2.08;;
16892;SDS011;8563;52.242;9.098;2023-03-18T13:33:53;2.13;;;1.80;;
16892;SDS011;8563;52.242;9.098;2023-03-18T13:40:07;2.30;;;2.00;;
16892;SDS011;8563;52.242;9.098;2023-03-18T13:42:53;2.88;;;2.30;;
16892;SDS011;8563;52.242;9.098;2023-03-18T13:45:30;3.05;;;2.13;;
16892;SDS011;8563;52.242;9.098;2023-03-18T13:48:04;3.60;;;2.50;;
16892;SDS011;8563;52.242;9.098;2023-03-18T13:50:39;2.33;;;2.07;;
16892;SDS011;8563;52.242;9.098;2023-03-18T13:53:20;2.80;;;1.90;;
16892;SDS011;8563;52.242;9.098;2023-03-18T13:56:00;2.92;;;1.77;;
16892;SDS011;8563;52.242;9.098;2023-03-18T13:58:40;2.35;;;1.77;;
16892;SDS011;8563;52.242;9.098;2023-03-18T14:01:29;1.67;;;1.57;;
16892;SDS011;8563;52.242;9.098;2023-03-18T14:04:27;6.85;;;2.22;;
16892;SDS011;8563;52.242;9.098;2023-03-18T14:07:11;3.35;;;2.05;;
16892;SDS011;8563;52.242;9.098;2023-03-18T14:09:48;1.60;;;1.50;;
16892;SDS011;8563;52.242;9.098;2023-03-18T14:18:18;2.60;;;2.35;;
16892;SDS011;8563;52.242;9.098;2023-03-18T14:20:58;2.33;;;2.08;;
16892;SDS011;8563;52.242;9.098;2023-03-18T14:23:34;2.27;;;1.90;;
16892;SDS011;8563;52.242;9.098;2023-03-18T14:26:21;2.53;;;1.87;;
16892;SDS011;8563;52.242;9.098;2023-03-18T14:28:56;2.28;;;1.95;;
16892;SDS011;8563;52.242;9.098;2023-03-18T14:31:50;2.17;;;1.98;;
16892;SDS011;8563;52.242;9.098;2023-03-18T14:34:29;3.47;;;2.27;;
16892;SDS011;8563;52.242;9.098;2023-03-18T14:39:59;2.60;;;1.30;;
16892;SDS011;8563;52.242;9.098;2023-03-18T14:42:39;2.50;;;1.90;;
16892;SDS011;8563;52.242;9.098;2023-03-18T14:45:17;2.00;;;1.50;;
16892;SDS011;8563;52.242;9.098;2023-03-18T14:47:54;1.77;;;1.67;;
16892;SDS011;8563;52.242;9.098;2023-03-18T14:50:33;2.13;;;1.55;;
16892;SDS011;8563;52.242;9.098;2023-03-18T14:53:11;1.83;;;1.60;;
16892;SDS011;8563;52.242;9.098;2023-03-18T14:55:49;2.28;;;1.65;;
16892;SDS011;8563;52.242;9.098;2023-03-18T14:58:22;7.10;;;2.50;;
16892;SDS011;8563;52.242;9.098;2023-03-18T15:00:58;4.05;;;3.40;;
16892;SDS011;8563;52.242;9.098;2023-03-18T15:03:33;2.65;;;2.45;;
16892;SDS011;8563;52.242;9.098;2023-03-18T15:06:14;2.92;;;2.38;;
16892;SDS011;8563;52.242;9.098;2023-03-18T15:08:50;4.33;;;2.77;;
16892;SDS011;8563;52.242;9.098;2023-03-18T15:11:28;3.03;;;2.75;;
16892;SDS011;8563;52.242;9.098;2023-03-18T15:14:09;3.83;;;3.38;;
16892;SDS011;8563;52.242;9.098;2023-03-18T15:16:47;3.87;;;2.93;;
16892;SDS011;8563;52.242;9.098;2023-03-18T15:19:20;3.90;;;2.90;;
16892;SDS011;8563;52.242;9.098;2023-03-18T15:21:54;3.65;;;2.30;;
16892;SDS011;8563;52.242;9.098;2023-03-18T15:24:28;5.35;;;2.63;;
16892;SDS011;8563;52.242;9.098;2023-03-18T15:27:03;3.33;;;2.00;;
16892;SDS011;8563;52.242;9.098;2023-03-18T15:29:42;2.78;;;2.20;;
16892;SDS011;8563;52.242;9.098;2023-03-18T15:32:19;4.68;;;1.98;;
16892;SDS011;8563;52.242;9.098;2023-03-18T15:34:54;3.70;;;2.10;;
16892;SDS011;8563;52.242;9.098;2023-03-18T15:37:33;2.30;;;2.10;;
16892;SDS011;8563;52.242;9.098;2023-03-18T15:40:13;2.25;;;2.05;;
16892;SDS011;8563;52.242;9.098;2023-03-18T15:42:48;3.87;;;2.33;;
16892;SDS011;8563;52.242;9.098;2023-03-18T15:45:21;3.28;;;2.22;;
16892;SDS011;8563;52.242;9.098;2023-03-18T15:48:01;3.40;;;1.70;;
16892;SDS011;8563;52.242;9.098;2023-03-18T15:50:49;2.60;;;1.63;;
16892;SDS011;8563;52.242;9.098;2023-03-18T15:53:25;3.00;;;1.50;;
16892;SDS011;8563;52.242;9.098;2023-03-18T15:56:06;2.70;;;1.60;;
16892;SDS011;8563;52.242;9.098;2023-03-18T15:58:48;2.67;;;1.80;;
16892;SDS011;8563;52.242;9.098;2023-03-18T16:01:28;2.15;;;1.90;;
16892;SDS011;8563;52.242;9.098;2023-03-18T16:04:01;2.42;;;2.00;;
16892;SDS011;8563;52.242;9.098;2023-03-18T16:06:35;2.58;;;1.92;;
16892;SDS011;8563;52.242;9.098;2023-03-18T16:09:13;3.10;;;2.25;;
16892;SDS011;8563;52.242;9.098;2023-03-18T16:11:48;2.53;;;1.95;;
16892;SDS011;8563;52.242;9.098;2023-03-18T16:14:23;3.53;;;2.00;;